sensor_id;sensor_type;location;lat;lon;timestamp;P1;durP1;ratioP1;P2;durP2;ratioP2
15006;SDS011;7599;50.748;13.142;2024-03-23T00:52:27;1.95;;;1.58;;
15006;SDS011;7599;50.748;13.142;2024-03-23T00:55:28;2.20;;;1.42;;
15006;SDS011;7599;50.748;13.142;2024-03-23T00:58:30;2.03;;;1.52;;
15006;SDS011;7599;50.748;13.142;2024-03-23T01:01:33;2.63;;;1.30;;
15006;SDS011;7599;50.748;13.142;2024-03-23T01:04:35;2.67;;;1.80;;
15006;SDS011;7599;50.748;13.142;2024-03-23T01:07:37;2.25;;;1.48;;
15006;SDS011;7599;50.748;13.142;2024-03-23T01:10:39;2.28;;;1.58;;
15006;SDS011;7599;50.748;13.142;2024-03-23T01:13:41;3.05;;;1.50;;
15006;SDS011;7599;50.748;13.142;2024-03-23T01:16:43;3.17;;;2.00;;
15006;SDS011;7599;50.748;13.142;2024-03-23T01:19:45;2.38;;;1.42;;
15006;SDS011;7599;50.748;13.142;2024-03-23T01:22:47;3.08;;;1.75;;
15006;SDS011;7599;50.748;13.142;2024-03-23T01:25:52;2.30;;;1.60;;
15006;SDS011;7599;50.748;13.142;2024-03-23T01:28:53;2.25;;;1.65;;
15006;SDS011;7599;50.748;13.142;2024-03-23T01:31:57;2.70;;;1.50;;
15006;SDS011;7599;50.748;13.142;2024-03-23T01:34:57;2.05;;;1.40;;
15006;SDS011;7599;50.748;13.142;2024-03-23T01:37:59;3.15;;;1.90;;
15006;SDS011;7599;50.748;13.142;2024-03-23T01:41:00;2.35;;;1.75;;
15006;SDS011;7599;50.748;13.142;2024-03-23T01:44:06;3.97;;;1.45;;
15006;SDS011;7599;50.748;13.142;2024-03-23T01:47:09;2.40;;;1.67;;
15006;SDS011;7599;50.748;13.142;2024-03-23T01:50:10;2.70;;;1.85;;
15006;SDS011;7599;50.748;13.142;2024-03-23T01:53:11;3.75;;;1.80;;
15006;SDS011;7599;50.748;13.142;2024-03-23T01:56:16;2.58;;;1.65;;
15006;SDS011;7599;50.748;13.142;2024-03-23T01:59:18;2.80;;;2.05;;
15006;SDS011;7599;50.748;13.142;2024-03-23T02:02:20;4.18;;;1.80;;
15006;SDS011;7599;50.748;13.142;2024-03-23T02:05:22;2.97;;;1.70;;
15006;SDS011;7599;50.748;13.142;2024-03-23T02:08:24;2.63;;;1.60;;
15006;SDS011;7599;50.748;13.142;2024-03-23T02:11:27;3.25;;;1.63;;
15006;SDS011;7599;50.748;13.142;2024-03-23T02:14:30;2.55;;;1.63;;
15006;SDS011;7599;50.748;13.142;2024-03-23T02:17:34;2.53;;;2.10;;
15006;SDS011;7599;50.748;13.142;2024-03-23T02:20:36;2.10;;;1.50;;
15006;SDS011;7599;50.748;13.142;2024-03-23T02:23:39;2.30;;;1.58;;
15006;SDS011;7599;50.748;13.142;2024-03-23T02:26:41;2.45;;;1.30;;
15006;SDS011;7599;50.748;13.142;2024-03-23T02:29:43;2.53;;;1.75;;
15006;SDS011;7599;50.748;13.142;2024-03-23T02:32:44;1.92;;;1.52;;
15006;SDS011;7599;50.748;13.142;2024-03-23T02:35:47;2.88;;;1.70;;
15006;SDS011;7599;50.748;13.142;2024-03-23T02:38:52;2.13;;;1.60;;
15006;SDS011;7599;50.748;13.142;2024-03-23T02:41:53;2.20;;;1.70;;
15006;SDS011;7599;50.748;13.142;2024-03-23T02:44:54;2.13;;;1.55;;
15006;SDS011;7599;50.748;13.142;2024-03-23T02:47:55;2.25;;;1.50;;
15006;SDS011;7599;50.748;13.142;2024-03-23T02:50:57;2.25;;;1.60;;
15006;SDS011;7599;50.748;13.142;2024-03-23T02:54:00;2.95;;;1.95;;
15006;SDS011;7599;50.748;13.142;2024-03-23T02:57:01;2.15;;;1.42;;
15006;SDS011;7599;50.748;13.142;2024-03-23T03:00:07;2.65;;;1.55;;
15006;SDS011;7599;50.748;13.142;2024-03-23T03:03:09;2.22;;;1.50;;
15006;SDS011;7599;50.748;13.142;2024-03-23T03:06:10;2.30;;;1.65;;
15006;SDS011;7599;50.748;13.142;2024-03-23T03:09:13;1.88;;;1.40;;
15006;SDS011;7599;50.748;13.142;2024-03-23T03:12:14;2.65;;;1.70;;
15006;SDS011;7599;50.748;13.142;2024-03-23T03:15:15;2.63;;;1.70;;
15006;SDS011;7599;50.748;13.142;2024-03-23T03:18:17;2.00;;;1.50;;
15006;SDS011;7599;50.748;13.142;2024-03-23T03:21:18;2.13;;;1.73;;
15006;SDS011;7599;50.748;13.142;2024-03-23T03:24:21;2.10;;;1.40;;
15006;SDS011;7599;50.748;13.142;2024-03-23T03:27:22;2.08;;;1.70;;
15006;SDS011;7599;50.748;13.142;2024-03-23T03:30:24;2.83;;;1.50;;
15006;SDS011;7599;50.748;13.142;2024-03-23T03:33:26;2.00;;;1.50;;
15006;SDS011;7599;50.748;13.142;2024-03-23T03:36:29;2.22;;;1.75;;
15006;SDS011;7599;50.748;13.142;2024-03-23T03:39:31;2.80;;;1.50;;
15006;SDS011;7599;50.748;13.142;2024-03-23T03:42:33;1.95;;;1.48;;
15006;SDS011;7599;50.748;13.142;2024-03-23T03:45:34;1.65;;;1.20;;
15006;SDS011;7599;50.748;13.142;2024-03-23T03:48:35;2.38;;;1.65;;
15006;SDS011;7599;50.748;13.142;2024-03-23T03:51:37;1.88;;;1.38;;
15006;SDS011;7599;50.748;13.142;2024-03-23T03:54:39;3.20;;;1.40;;
15006;SDS011;7599;50.748;13.142;2024-03-23T03:57:40;2.38;;;1.95;;
15006;SDS011;7599;50.748;13.142;2024-03-23T04:00:42;2.40;;;1.40;;
15006;SDS011;7599;50.748;13.142;2024-03-23T04:03:43;1.80;;;1.52;;
15006;SDS011;7599;50.748;13.142;2024-03-23T04:07:03;2.17;;;1.48;;
15006;SDS011;7599;50.748;13.142;2024-03-23T04:10:24;1.90;;;1.48;;
15006;SDS011;7599;50.748;13.142;2024-03-23T04:13:27;1.95;;;1.40;;
15006;SDS011;7599;50.748;13.142;2024-03-23T04:16:48;2.85;;;1.35;;
15006;SDS011;7599;50.748;13.142;2024-03-23T04:20:05;3.13;;;1.80;;
15006;SDS011;7599;50.748;13.142;2024-03-23T04:23:17;1.95;;;1.52;;
15006;SDS011;7599;50.748;13.142;2024-03-23T04:26:29;1.83;;;1.55;;
15006;SDS011;7599;50.748;13.142;2024-03-23T04:29:33;2.33;;;1.73;;
15006;SDS011;7599;50.748;13.142;2024-03-23T04:32:35;2.05;;;1.67;;
15006;SDS011;7599;50.748;13.142;2024-03-23T04:35:49;2.47;;;1.52;;
15006;SDS011;7599;50.748;13.142;2024-03-23T04:38:52;2.63;;;1.80;;
15006;SDS011;7599;50.748;13.142;2024-03-23T04:41:55;2.75;;;1.70;;
15006;SDS011;7599;50.748;13.142;2024-03-23T04:44:57;2.42;;;1.60;;
15006;SDS011;7599;50.748;13.142;2024-03-23T04:47:59;2.08;;;1.70;;
15006;SDS011;7599;50.748;13.142;2024-03-23T04:51:00;2.65;;;1.80;;
15006;SDS011;7599;50.748;13.142;2024-03-23T04:54:02;2.22;;;1.40;;
15006;SDS011;7599;50.748;13.142;2024-03-23T04:57:25;2.00;;;1.60;;
15006;SDS011;7599;50.748;13.142;2024-03-23T05:03:28;2.17;;;1.58;;
15006;SDS011;7599;50.748;13.142;2024-03-23T05:06:53;2.15;;;1.35;;
15006;SDS011;7599;50.748;13.142;2024-03-23T05:10:09;1.70;;;1.27;;
15006;SDS011;7599;50.748;13.142;2024-03-23T05:13:13;2.47;;;1.70;;
15006;SDS011;7599;50.748;13.142;2024-03-23T05:16:13;2.33;;;1.45;;
15006;SDS011;7599;50.748;13.142;2024-03-23T05:19:16;2.40;;;1.73;;
15006;SDS011;7599;50.748;13.142;2024-03-23T05:22:17;1.92;;;1.23;;
15006;SDS011;7599;50.748;13.142;2024-03-23T05:25:18;2.67;;;1.95;;
15006;SDS011;7599;50.748;13.142;2024-03-23T05:28:21;2.38;;;1.58;;
15006;SDS011;7599;50.748;13.142;2024-03-23T05:31:23;2.72;;;1.52;;
15006;SDS011;7599;50.748;13.142;2024-03-23T05:34:24;2.92;;;1.58;;
15006;SDS011;7599;50.748;13.142;2024-03-23T05:37:31;2.42;;;1.73;;
15006;SDS011;7599;50.748;13.142;2024-03-23T05:40:34;1.90;;;1.45;;
15006;SDS011;7599;50.748;13.142;2024-03-23T05:43:38;1.98;;;1.70;;
15006;SDS011;7599;50.748;13.142;2024-03-23T05:49:42;1.90;;;1.60;;
15006;SDS011;7599;50.748;13.142;2024-03-23T05:52:43;2.53;;;1.55;;
15006;SDS011;7599;50.748;13.142;2024-03-23T05:58:49;2.25;;;1.70;;
15006;SDS011;7599;50.748;13.142;2024-03-23T06:01:51;2.25;;;1.73;;
15006;SDS011;7599;50.748;13.142;2024-03-23T06:04:52;2.22;;;1.67;;
15006;SDS011;7599;50.748;13.142;2024-03-23T06:10:55;2.45;;;1.73;;
15006;SDS011;7599;50.748;13.142;2024-03-23T06:14:02;2.65;;;1.60;;
15006;SDS011;7599;50.748;13.142;2024-03-23T06:17:04;2.55;;;1.70;;
15006;SDS011;7599;50.748;13.142;2024-03-23T06:20:06;1.80;;;1.50;;
15006;SDS011;7599;50.748;13.142;2024-03-23T06:23:08;2.58;;;1.80;;
15006;SDS011;7599;50.748;13.142;2024-03-23T06:26:09;1.63;;;1.52;;
15006;SDS011;7599;50.748;13.142;2024-03-23T06:29:12;4.22;;;1.77;;
15006;SDS011;7599;50.748;13.142;2024-03-23T06:32:13;3.50;;;2.00;;
15006;SDS011;7599;50.748;13.142;2024-03-23T06:35:14;2.08;;;1.63;;
15006;SDS011;7599;50.748;13.142;2024-03-23T06:38:17;2.47;;;1.60;;
15006;SDS011;7599;50.748;13.142;2024-03-23T06:41:20;2.20;;;1.52;;
15006;SDS011;7599;50.748;13.142;2024-03-23T06:44:23;4.55;;;2.20;;
15006;SDS011;7599;50.748;13.142;2024-03-23T06:47:32;2.55;;;1.65;;
15006;SDS011;7599;50.748;13.142;2024-03-23T06:50:33;2.60;;;1.92;;
15006;SDS011;7599;50.748;13.142;2024-03-23T06:53:37;2.22;;;1.58;;
15006;SDS011;7599;50.748;13.142;2024-03-23T06:56:41;1.73;;;1.60;;
15006;SDS011;7599;50.748;13.142;2024-03-23T06:59:44;2.88;;;1.80;;
15006;SDS011;7599;50.748;13.142;2024-03-23T07:02:45;2.20;;;1.60;;
15006;SDS011;7599;50.748;13.142;2024-03-23T07:05:46;1.98;;;1.60;;
15006;SDS011;7599;50.748;13.142;2024-03-23T07:08:47;2.50;;;1.80;;
15006;SDS011;7599;50.748;13.142;2024-03-23T07:11:51;2.22;;;1.40;;
15006;SDS011;7599;50.748;13.142;2024-03-23T07:14:55;2.33;;;1.73;;
15006;SDS011;7599;50.748;13.142;2024-03-23T07:17:57;2.10;;;1.42;;
15006;SDS011;7599;50.748;13.142;2024-03-23T07:20:58;3.97;;;1.55;;
15006;SDS011;7599;50.748;13.142;2024-03-23T07:23:59;2.30;;;1.67;;
15006;SDS011;7599;50.748;13.142;2024-03-23T07:27:00;2.95;;;1.40;;
15006;SDS011;7599;50.748;13.142;2024-03-23T07:30:04;2.28;;;1.52;;
15006;SDS011;7599;50.748;13.142;2024-03-23T07:33:07;2.05;;;1.20;;
15006;SDS011;7599;50.748;13.142;2024-03-23T07:36:08;1.90;;;1.40;;
15006;SDS011;7599;50.748;13.142;2024-03-23T07:39:10;2.17;;;1.42;;
15006;SDS011;7599;50.748;13.142;2024-03-23T07:42:10;2.03;;;1.40;;
15006;SDS011;7599;50.748;13.142;2024-03-23T07:45:13;1.85;;;1.40;;
15006;SDS011;7599;50.748;13.142;2024-03-23T07:48:14;1.75;;;1.17;;
15006;SDS011;7599;50.748;13.142;2024-03-23T07:54:26;1.95;;;1.35;;
15006;SDS011;7599;50.748;13.142;2024-03-23T07:57:26;3.83;;;1.40;;
15006;SDS011;7599;50.748;13.142;2024-03-23T08:00:34;2.58;;;1.35;;
15006;SDS011;7599;50.748;13.142;2024-03-23T08:03:43;2.15;;;1.25;;
15006;SDS011;7599;50.748;13.142;2024-03-23T08:06:45;2.97;;;1.52;;
15006;SDS011;7599;50.748;13.142;2024-03-23T08:09:47;1.75;;;1.27;;
15006;SDS011;7599;50.748;13.142;2024-03-23T08:12:49;2.67;;;1.30;;
15006;SDS011;7599;50.748;13.142;2024-03-23T08:15:57;3.35;;;1.38;;
15006;SDS011;7599;50.748;13.142;2024-03-23T08:19:13;1.80;;;1.50;;
15006;SDS011;7599;50.748;13.142;2024-03-23T08:22:13;1.63;;;1.02;;
15006;SDS011;7599;50.748;13.142;2024-03-23T08:25:15;2.05;;;1.33;;
15006;SDS011;7599;50.748;13.142;2024-03-23T08:28:17;2.33;;;1.20;;
15006;SDS011;7599;50.748;13.142;2024-03-23T08:31:20;3.72;;;1.05;;
15006;SDS011;7599;50.748;13.142;2024-03-23T08:34:21;2.78;;;1.70;;
15006;SDS011;7599;50.748;13.142;2024-03-23T08:37:31;1.70;;;1.23;;
15006;SDS011;7599;50.748;13.142;2024-03-23T08:43:59;2.35;;;1.08;;
15006;SDS011;7599;50.748;13.142;2024-03-23T08:47:02;2.38;;;1.38;;
15006;SDS011;7599;50.748;13.142;2024-03-23T08:50:04;2.10;;;1.02;;
15006;SDS011;7599;50.748;13.142;2024-03-23T08:53:08;1.60;;;1.20;;
15006;SDS011;7599;50.748;13.142;2024-03-23T08:56:09;1.90;;;1.10;;
15006;SDS011;7599;50.748;13.142;2024-03-23T08:59:12;2.67;;;1.50;;
15006;SDS011;7599;50.748;13.142;2024-03-23T09:02:14;2.70;;;1.30;;
15006;SDS011;7599;50.748;13.142;2024-03-23T09:05:17;2.25;;;1.10;;
15006;SDS011;7599;50.748;13.142;2024-03-23T09:08:18;1.67;;;1.15;;
15006;SDS011;7599;50.748;13.142;2024-03-23T09:11:22;1.48;;;1.20;;
15006;SDS011;7599;50.748;13.142;2024-03-23T09:14:38;2.20;;;1.30;;
15006;SDS011;7599;50.748;13.142;2024-03-23T09:17:43;2.22;;;1.20;;
15006;SDS011;7599;50.748;13.142;2024-03-23T09:20:44;1.38;;;1.15;;
15006;SDS011;7599;50.748;13.142;2024-03-23T09:23:45;2.13;;;1.35;;
15006;SDS011;7599;50.748;13.142;2024-03-23T09:26:56;2.40;;;1.13;;
15006;SDS011;7599;50.748;13.142;2024-03-23T09:29:57;2.17;;;1.63;;
15006;SDS011;7599;50.748;13.142;2024-03-23T09:33:02;1.58;;;1.25;;
15006;SDS011;7599;50.748;13.142;2024-03-23T09:36:03;1.38;;;1.00;;
15006;SDS011;7599;50.748;13.142;2024-03-23T09:39:06;2.15;;;1.30;;
15006;SDS011;7599;50.748;13.142;2024-03-23T09:42:07;1.90;;;1.20;;
15006;SDS011;7599;50.748;13.142;2024-03-23T09:45:16;2.85;;;1.20;;
15006;SDS011;7599;50.748;13.142;2024-03-23T09:48:23;3.40;;;1.30;;
15006;SDS011;7599;50.748;13.142;2024-03-23T09:51:25;1.88;;;1.30;;
15006;SDS011;7599;50.748;13.142;2024-03-23T09:54:26;1.70;;;1.17;;
15006;SDS011;7599;50.748;13.142;2024-03-23T09:57:28;2.78;;;1.20;;
15006;SDS011;7599;50.748;13.142;2024-03-23T10:00:30;1.58;;;1.10;;
15006;SDS011;7599;50.748;13.142;2024-03-23T10:03:33;1.60;;;1.20;;
15006;SDS011;7599;50.748;13.142;2024-03-23T10:06:47;2.17;;;1.05;;
15006;SDS011;7599;50.748;13.142;2024-03-23T10:09:48;1.60;;;1.20;;
15006;SDS011;7599;50.748;13.142;2024-03-23T10:12:51;1.40;;;0.93;;
15006;SDS011;7599;50.748;13.142;2024-03-23T10:15:56;1.20;;;0.77;;
15006;SDS011;7599;50.748;13.142;2024-03-23T10:19:31;1.00;;;0.80;;
15006;SDS011;7599;50.748;13.142;2024-03-23T10:22:47;1.88;;;1.50;;
15006;SDS011;7599;50.748;13.142;2024-03-23T10:25:51;1.00;;;0.82;;
15006;SDS011;7599;50.748;13.142;2024-03-23T10:29:08;1.42;;;0.88;;
15006;SDS011;7599;50.748;13.142;2024-03-23T10:32:12;2.10;;;0.80;;
15006;SDS011;7599;50.748;13.142;2024-03-23T10:35:19;1.95;;;0.93;;
15006;SDS011;7599;50.748;13.142;2024-03-23T10:38:28;1.10;;;0.70;;
15006;SDS011;7599;50.748;13.142;2024-03-23T10:41:32;3.95;;;0.88;;
15006;SDS011;7599;50.748;13.142;2024-03-23T10:44:35;1.95;;;1.00;;
15006;SDS011;7599;50.748;13.142;2024-03-23T10:47:37;1.75;;;1.10;;
15006;SDS011;7599;50.748;13.142;2024-03-23T10:50:39;1.23;;;0.70;;
15006;SDS011;7599;50.748;13.142;2024-03-23T10:53:41;2.85;;;0.80;;
15006;SDS011;7599;50.748;13.142;2024-03-23T10:56:42;1.00;;;0.70;;
15006;SDS011;7599;50.748;13.142;2024-03-23T10:59:44;1.45;;;0.80;;
15006;SDS011;7599;50.748;13.142;2024-03-23T11:02:47;1.30;;;0.90;;
15006;SDS011;7599;50.748;13.142;2024-03-23T11:05:51;1.10;;;0.80;;
15006;SDS011;7599;50.748;13.142;2024-03-23T11:09:03;4.18;;;0.70;;
15006;SDS011;7599;50.748;13.142;2024-03-23T11:12:43;0.95;;;0.80;;
15006;SDS011;7599;50.748;13.142;2024-03-23T11:15:50;0.90;;;0.70;;
15006;SDS011;7599;50.748;13.142;2024-03-23T11:22:38;1.05;;;0.63;;
15006;SDS011;7599;50.748;13.142;2024-03-23T11:30:10;1.40;;;0.60;;
15006;SDS011;7599;50.748;13.142;2024-03-23T11:33:13;1.15;;;0.80;;
15006;SDS011;7599;50.748;13.142;2024-03-23T11:36:18;0.80;;;0.50;;
15006;SDS011;7599;50.748;13.142;2024-03-23T11:39:33;0.65;;;0.52;;
15006;SDS011;7599;50.748;13.142;2024-03-23T11:42:38;1.25;;;0.80;;
15006;SDS011;7599;50.748;13.142;2024-03-23T11:45:47;0.77;;;0.60;;
15006;SDS011;7599;50.748;13.142;2024-03-23T11:49:23;0.88;;;0.55;;
15006;SDS011;7599;50.748;13.142;2024-03-23T11:52:34;0.85;;;0.50;;
15006;SDS011;7599;50.748;13.142;2024-03-23T11:55:45;1.35;;;0.50;;
15006;SDS011;7599;50.748;13.142;2024-03-23T11:59:40;0.65;;;0.65;;
15006;SDS011;7599;50.748;13.142;2024-03-23T12:02:45;0.73;;;0.60;;
15006;SDS011;7599;50.748;13.142;2024-03-23T12:05:47;0.60;;;0.60;;
15006;SDS011;7599;50.748;13.142;2024-03-23T12:12:20;1.00;;;0.40;;
15006;SDS011;7599;50.748;13.142;2024-03-23T12:15:25;0.30;;;0.30;;
15006;SDS011;7599;50.748;13.142;2024-03-23T12:22:06;0.50;;;0.40;;
15006;SDS011;7599;50.748;13.142;2024-03-23T12:25:35;0.88;;;0.50;;
15006;SDS011;7599;50.748;13.142;2024-03-23T12:31:55;0.70;;;0.50;;
15006;SDS011;7599;50.748;13.142;2024-03-23T12:34:59;1.08;;;0.60;;
15006;SDS011;7599;50.748;13.142;2024-03-23T12:38:00;0.80;;;0.50;;
15006;SDS011;7599;50.748;13.142;2024-03-23T12:41:01;2.35;;;0.57;;
15006;SDS011;7599;50.748;13.142;2024-03-23T12:44:05;0.40;;;0.40;;
15006;SDS011;7599;50.748;13.142;2024-03-23T12:50:11;1.15;;;0.60;;
15006;SDS011;7599;50.748;13.142;2024-03-23T12:53:13;0.85;;;0.47;;
15006;SDS011;7599;50.748;13.142;2024-03-23T12:56:14;0.80;;;0.57;;
15006;SDS011;7599;50.748;13.142;2024-03-23T12:59:15;0.40;;;0.40;;
15006;SDS011;7599;50.748;13.142;2024-03-23T13:02:18;0.45;;;0.30;;
15006;SDS011;7599;50.748;13.142;2024-03-23T13:05:23;0.98;;;0.45;;
15006;SDS011;7599;50.748;13.142;2024-03-23T13:11:27;0.73;;;0.52;;
15006;SDS011;7599;50.748;13.142;2024-03-23T13:14:30;0.40;;;0.30;;
15006;SDS011;7599;50.748;13.142;2024-03-23T13:17:33;1.70;;;0.57;;
15006;SDS011;7599;50.748;13.142;2024-03-23T13:20:36;0.65;;;0.43;;
15006;SDS011;7599;50.748;13.142;2024-03-23T13:23:38;0.90;;;0.50;;
15006;SDS011;7599;50.748;13.142;2024-03-23T13:26:49;0.43;;;0.40;;
15006;SDS011;7599;50.748;13.142;2024-03-23T13:29:57;0.75;;;0.50;;
15006;SDS011;7599;50.748;13.142;2024-03-23T13:33:04;0.30;;;0.30;;
15006;SDS011;7599;50.748;13.142;2024-03-23T13:36:07;0.57;;;0.50;;
15006;SDS011;7599;50.748;13.142;2024-03-23T13:39:12;0.70;;;0.50;;
15006;SDS011;7599;50.748;13.142;2024-03-23T13:42:14;0.50;;;0.40;;
15006;SDS011;7599;50.748;13.142;2024-03-23T13:45:18;0.90;;;0.50;;
15006;SDS011;7599;50.748;13.142;2024-03-23T13:48:19;1.02;;;0.40;;
15006;SDS011;7599;50.748;13.142;2024-03-23T13:51:27;0.38;;;0.30;;
15006;SDS011;7599;50.748;13.142;2024-03-23T13:54:36;1.52;;;0.32;;
15006;SDS011;7599;50.748;13.142;2024-03-23T13:57:38;0.63;;;0.40;;
15006;SDS011;7599;50.748;13.142;2024-03-23T14:00:41;1.25;;;0.38;;
15006;SDS011;7599;50.748;13.142;2024-03-23T14:03:43;1.58;;;0.57;;
15006;SDS011;7599;50.748;13.142;2024-03-23T14:06:48;0.85;;;0.50;;
15006;SDS011;7599;50.748;13.142;2024-03-23T14:09:52;0.95;;;0.30;;
15006;SDS011;7599;50.748;13.142;2024-03-23T14:12:55;0.80;;;0.50;;
15006;SDS011;7599;50.748;13.142;2024-03-23T14:15:57;1.27;;;0.57;;
15006;SDS011;7599;50.748;13.142;2024-03-23T14:18:59;1.30;;;0.40;;
15006;SDS011;7599;50.748;13.142;2024-03-23T14:22:04;0.85;;;0.40;;
15006;SDS011;7599;50.748;13.142;2024-03-23T14:25:06;0.60;;;0.30;;
15006;SDS011;7599;50.748;13.142;2024-03-23T14:28:07;0.88;;;0.50;;
15006;SDS011;7599;50.748;13.142;2024-03-23T14:31:26;0.88;;;0.50;;
15006;SDS011;7599;50.748;13.142;2024-03-23T14:34:42;3.78;;;0.40;;
15006;SDS011;7599;50.748;13.142;2024-03-23T14:37:49;1.15;;;0.57;;
15006;SDS011;7599;50.748;13.142;2024-03-23T14:40:49;0.77;;;0.60;;
15006;SDS011;7599;50.748;13.142;2024-03-23T14:43:54;0.75;;;0.43;;
15006;SDS011;7599;50.748;13.142;2024-03-23T14:46:59;0.57;;;0.40;;
15006;SDS011;7599;50.748;13.142;2024-03-23T14:50:09;0.98;;;0.50;;
15006;SDS011;7599;50.748;13.142;2024-03-23T14:53:16;0.80;;;0.45;;
15006;SDS011;7599;50.748;13.142;2024-03-23T14:59:18;2.08;;;0.50;;
15006;SDS011;7599;50.748;13.142;2024-03-23T15:02:21;1.05;;;0.60;;
15006;SDS011;7599;50.748;13.142;2024-03-23T15:05:22;1.65;;;0.40;;
15006;SDS011;7599;50.748;13.142;2024-03-23T15:08:52;1.13;;;0.50;;
15006;SDS011;7599;50.748;13.142;2024-03-23T15:12:15;0.43;;;0.43;;
15006;SDS011;7599;50.748;13.142;2024-03-23T15:15:28;1.38;;;0.40;;
15006;SDS011;7599;50.748;13.142;2024-03-23T15:18:31;2.17;;;0.60;;
15006;SDS011;7599;50.748;13.142;2024-03-23T15:21:44;8.93;;;0.70;;
15006;SDS011;7599;50.748;13.142;2024-03-23T15:25:05;2.90;;;0.60;;
15006;SDS011;7599;50.748;13.142;2024-03-23T15:28:06;4.07;;;0.73;;
15006;SDS011;7599;50.748;13.142;2024-03-23T15:31:08;2.10;;;0.60;;
15006;SDS011;7599;50.748;13.142;2024-03-23T15:34:09;7.20;;;0.80;;
15006;SDS011;7599;50.748;13.142;2024-03-23T15:37:11;1.85;;;0.68;;
15006;SDS011;7599;50.748;13.142;2024-03-23T15:40:15;3.90;;;0.90;;
15006;SDS011;7599;50.748;13.142;2024-03-23T15:43:16;0.80;;;0.57;;
15006;SDS011;7599;50.748;13.142;2024-03-23T15:46:25;2.00;;;0.60;;
15006;SDS011;7599;50.748;13.142;2024-03-23T15:49:35;6.07;;;0.60;;
15006;SDS011;7599;50.748;13.142;2024-03-23T15:56:20;2.38;;;0.50;;
15006;SDS011;7599;50.748;13.142;2024-03-23T15:59:21;3.40;;;0.57;;
15006;SDS011;7599;50.748;13.142;2024-03-23T16:02:28;3.85;;;0.90;;
15006;SDS011;7599;50.748;13.142;2024-03-23T16:05:29;3.80;;;0.73;;
15006;SDS011;7599;50.748;13.142;2024-03-23T16:08:51;6.40;;;0.70;;
15006;SDS011;7599;50.748;13.142;2024-03-23T16:11:54;1.70;;;1.38;;
15006;SDS011;7599;50.748;13.142;2024-03-23T16:14:57;2.17;;;0.90;;
15006;SDS011;7599;50.748;13.142;2024-03-23T16:18:03;3.17;;;0.75;;
15006;SDS011;7599;50.748;13.142;2024-03-23T16:21:05;10.43;;;1.48;;
15006;SDS011;7599;50.748;13.142;2024-03-23T16:24:07;11.45;;;1.27;;
15006;SDS011;7599;50.748;13.142;2024-03-23T16:27:13;12.27;;;1.38;;
15006;SDS011;7599;50.748;13.142;2024-03-23T16:30:14;13.38;;;1.30;;
15006;SDS011;7599;50.748;13.142;2024-03-23T16:33:17;17.13;;;1.58;;
15006;SDS011;7599;50.748;13.142;2024-03-23T16:36:17;4.82;;;1.00;;
15006;SDS011;7599;50.748;13.142;2024-03-23T16:39:28;10.65;;;1.40;;
15006;SDS011;7599;50.748;13.142;2024-03-23T16:42:49;6.20;;;1.52;;
15006;SDS011;7599;50.748;13.142;2024-03-23T16:46:16;8.23;;;1.20;;
15006;SDS011;7599;50.748;13.142;2024-03-23T16:49:27;5.38;;;1.85;;
15006;SDS011;7599;50.748;13.142;2024-03-23T16:52:31;6.45;;;1.30;;
15006;SDS011;7599;50.748;13.142;2024-03-23T16:55:34;7.82;;;1.25;;
15006;SDS011;7599;50.748;13.142;2024-03-23T16:58:37;4.20;;;1.23;;
15006;SDS011;7599;50.748;13.142;2024-03-23T17:01:41;2.97;;;0.88;;
15006;SDS011;7599;50.748;13.142;2024-03-23T17:04:45;8.98;;;1.67;;
15006;SDS011;7599;50.748;13.142;2024-03-23T17:07:46;5.72;;;1.23;;
15006;SDS011;7599;50.748;13.142;2024-03-23T17:10:48;10.32;;;1.65;;
15006;SDS011;7599;50.748;13.142;2024-03-23T17:13:51;7.07;;;1.48;;
15006;SDS011;7599;50.748;13.142;2024-03-23T17:16:54;10.23;;;1.52;;
15006;SDS011;7599;50.748;13.142;2024-03-23T17:20:01;6.10;;;1.38;;
15006;SDS011;7599;50.748;13.142;2024-03-23T17:23:06;9.73;;;1.40;;
15006;SDS011;7599;50.748;13.142;2024-03-23T17:26:10;6.85;;;1.80;;
15006;SDS011;7599;50.748;13.142;2024-03-23T17:29:16;4.95;;;1.52;;
15006;SDS011;7599;50.748;13.142;2024-03-23T17:32:20;4.93;;;1.30;;
15006;SDS011;7599;50.748;13.142;2024-03-23T17:35:29;5.97;;;1.50;;
15006;SDS011;7599;50.748;13.142;2024-03-23T17:38:38;3.63;;;1.33;;
15006;SDS011;7599;50.748;13.142;2024-03-23T17:41:38;3.03;;;1.25;;
15006;SDS011;7599;50.748;13.142;2024-03-23T17:44:44;3.00;;;1.30;;
15006;SDS011;7599;50.748;13.142;2024-03-23T17:50:46;3.67;;;1.50;;
15006;SDS011;7599;50.748;13.142;2024-03-23T17:54:05;3.25;;;1.25;;
15006;SDS011;7599;50.748;13.142;2024-03-23T18:00:26;2.17;;;1.40;;
15006;SDS011;7599;50.748;13.142;2024-03-23T18:03:32;2.50;;;1.33;;
15006;SDS011;7599;50.748;13.142;2024-03-23T18:06:49;5.28;;;1.50;;
15006;SDS011;7599;50.748;13.142;2024-03-23T18:09:54;4.22;;;1.02;;
15006;SDS011;7599;50.748;13.142;2024-03-23T18:12:58;3.40;;;1.15;;
15006;SDS011;7599;50.748;13.142;2024-03-23T18:16:00;4.15;;;1.55;;
15006;SDS011;7599;50.748;13.142;2024-03-23T18:19:03;4.53;;;1.75;;
15006;SDS011;7599;50.748;13.142;2024-03-23T18:22:05;6.07;;;1.98;;
15006;SDS011;7599;50.748;13.142;2024-03-23T18:25:08;4.47;;;2.00;;
15006;SDS011;7599;50.748;13.142;2024-03-23T18:28:10;4.40;;;2.03;;
15006;SDS011;7599;50.748;13.142;2024-03-23T18:31:11;3.47;;;1.63;;
15006;SDS011;7599;50.748;13.142;2024-03-23T18:34:13;3.85;;;1.90;;
15006;SDS011;7599;50.748;13.142;2024-03-23T18:37:22;5.93;;;1.85;;
15006;SDS011;7599;50.748;13.142;2024-03-23T18:40:24;3.50;;;1.60;;
15006;SDS011;7599;50.748;13.142;2024-03-23T18:43:24;2.83;;;1.80;;
15006;SDS011;7599;50.748;13.142;2024-03-23T18:46:28;2.92;;;1.38;;
15006;SDS011;7599;50.748;13.142;2024-03-23T18:49:29;4.03;;;1.48;;
15006;SDS011;7599;50.748;13.142;2024-03-23T18:52:34;3.97;;;1.73;;
15006;SDS011;7599;50.748;13.142;2024-03-23T18:55:36;4.35;;;1.70;;
15006;SDS011;7599;50.748;13.142;2024-03-23T18:58:37;3.53;;;1.67;;
15006;SDS011;7599;50.748;13.142;2024-03-23T19:01:41;4.43;;;1.60;;
15006;SDS011;7599;50.748;13.142;2024-03-23T19:04:42;1.90;;;1.30;;
15006;SDS011;7599;50.748;13.142;2024-03-23T19:07:43;2.72;;;1.48;;
15006;SDS011;7599;50.748;13.142;2024-03-23T19:10:50;3.90;;;1.67;;
15006;SDS011;7599;50.748;13.142;2024-03-23T19:13:51;2.50;;;1.33;;
15006;SDS011;7599;50.748;13.142;2024-03-23T19:16:54;3.58;;;1.63;;
15006;SDS011;7599;50.748;13.142;2024-03-23T19:19:56;3.47;;;1.63;;
15006;SDS011;7599;50.748;13.142;2024-03-23T19:22:58;2.53;;;1.60;;
15006;SDS011;7599;50.748;13.142;2024-03-23T19:25:59;2.88;;;1.23;;
15006;SDS011;7599;50.748;13.142;2024-03-23T19:29:06;4.03;;;1.48;;
15006;SDS011;7599;50.748;13.142;2024-03-23T19:32:08;4.38;;;1.58;;
15006;SDS011;7599;50.748;13.142;2024-03-23T19:35:10;3.13;;;1.30;;
15006;SDS011;7599;50.748;13.142;2024-03-23T19:38:11;3.42;;;1.50;;
15006;SDS011;7599;50.748;13.142;2024-03-23T19:41:13;3.45;;;1.52;;
15006;SDS011;7599;50.748;13.142;2024-03-23T19:44:14;4.70;;;1.10;;
15006;SDS011;7599;50.748;13.142;2024-03-23T19:47:17;2.40;;;1.40;;
15006;SDS011;7599;50.748;13.142;2024-03-23T19:50:22;2.70;;;1.55;;
15006;SDS011;7599;50.748;13.142;2024-03-23T19:53:24;1.92;;;1.17;;
15006;SDS011;7599;50.748;13.142;2024-03-23T19:56:26;2.42;;;1.30;;
15006;SDS011;7599;50.748;13.142;2024-03-23T19:59:28;2.58;;;1.30;;
15006;SDS011;7599;50.748;13.142;2024-03-23T20:02:30;3.40;;;1.40;;
15006;SDS011;7599;50.748;13.142;2024-03-23T20:05:32;2.40;;;1.27;;
15006;SDS011;7599;50.748;13.142;2024-03-23T20:08:41;2.30;;;1.30;;
15006;SDS011;7599;50.748;13.142;2024-03-23T20:11:46;2.65;;;1.40;;
15006;SDS011;7599;50.748;13.142;2024-03-23T20:14:47;3.08;;;1.23;;
15006;SDS011;7599;50.748;13.142;2024-03-23T20:17:50;2.15;;;1.30;;
15006;SDS011;7599;50.748;13.142;2024-03-23T20:20:51;2.55;;;1.20;;